createdAt,value
2023-01-10T00:00:16.711Z,7.11
2023-01-10T00:02:47.138Z,7.18
2023-01-10T00:05:17.709Z,7.35
2023-01-10T00:07:48.602Z,7.48
2023-01-10T00:10:19.590Z,7.45
2023-01-10T00:13:02.318Z,7.43
2023-01-10T00:15:35.632Z,7.48
2023-01-10T00:18:06.359Z,7.43
2023-01-10T00:20:36.884Z,7.46
2023-01-10T00:23:08.932Z,7.48
2023-01-10T00:25:39.345Z,7.49
2023-01-10T00:28:17.463Z,7.50
2023-01-10T00:30:55.198Z,7.51
2023-01-10T00:33:26.498Z,7.56
2023-01-10T00:35:56.801Z,7.51
2023-01-10T00:38:27.435Z,7.49
2023-01-10T00:40:57.838Z,7.49
2023-01-10T00:43:40.569Z,7.34
2023-01-10T00:46:14.221Z,7.39
2023-01-10T00:48:44.561Z,7.37
2023-01-10T00:51:14.904Z,7.47
2023-01-10T00:53:45.147Z,7.50
2023-01-10T00:56:15.371Z,7.43
2023-01-10T00:58:45.861Z,7.49
2023-01-10T01:01:18.971Z,7.54
2023-01-10T01:03:49.332Z,7.43
2023-01-10T01:06:19.978Z,7.47
2023-01-10T01:08:50.312Z,7.47
2023-01-10T01:11:20.822Z,7.45
2023-01-10T01:13:51.913Z,7.44
2023-01-10T01:16:25.219Z,7.50
2023-01-10T01:18:55.591Z,7.42
2023-01-10T01:21:28.307Z,7.44
2023-01-10T01:23:59.623Z,7.40
2023-01-10T01:26:29.998Z,7.38
2023-01-10T01:29:00.329Z,7.22
2023-01-10T01:31:33.280Z,7.20
2023-01-10T01:34:03.627Z,7.31
2023-01-10T01:36:33.975Z,7.32
2023-01-10T01:39:06.270Z,7.35
2023-01-10T01:41:48.935Z,7.44
2023-01-10T01:44:21.939Z,7.40
2023-01-10T01:47:04.626Z,7.39
2023-01-10T01:49:38.276Z,7.33
2023-01-10T01:52:15.463Z,7.25
2023-01-10T01:54:46.026Z,7.18
2023-01-10T01:57:22.357Z,7.18
2023-01-10T01:59:56.716Z,7.07
2023-01-10T02:02:34.512Z,7.06
2023-01-10T02:05:08.865Z,7.12
2023-01-10T02:07:43.133Z,7.15
2023-01-10T02:10:20.005Z,7.21
2023-01-10T02:12:54.026Z,7.27
2023-01-10T02:15:24.481Z,7.38
2023-01-10T02:17:57.657Z,7.30
2023-01-10T02:20:28.585Z,7.16
2023-01-10T02:24:04.103Z,7.17
2023-01-10T02:27:02.082Z,7.23
2023-01-10T02:30:19.928Z,7.17
2023-01-10T02:33:05.149Z,7.10
2023-01-10T02:36:00.578Z,7.05
2023-01-10T02:38:46.503Z,7.16
2023-01-10T02:41:27.877Z,7.12
2023-01-10T02:44:06.243Z,7.16
2023-01-10T02:46:40.849Z,7.16
2023-01-10T02:49:13.806Z,7.14
2023-01-10T02:51:44.095Z,7.02
2023-01-10T02:54:18.779Z,6.96
2023-01-10T02:57:11.704Z,7.00
2023-01-10T03:00:21.947Z,6.92
2023-01-10T03:03:04.823Z,6.96
2023-01-10T03:05:55.887Z,6.92
2023-01-10T03:08:36.966Z,6.97
2023-01-10T03:11:12.990Z,6.95
2023-01-10T03:13:51.503Z,6.94
2023-01-10T03:16:26.613Z,7.04
2023-01-10T03:19:02.346Z,6.99
2023-01-10T03:21:37.571Z,6.96
2023-01-10T03:24:15.537Z,6.97
2023-01-10T03:26:57.205Z,7.13
2023-01-10T03:29:42.946Z,7.15
2023-01-10T03:32:17.449Z,7.12
2023-01-10T03:34:48.339Z,7.15
2023-01-10T03:37:26.389Z,7.27
2023-01-10T03:40:06.478Z,7.23
2023-01-10T03:43:01.259Z,7.28
2023-01-10T03:45:38.852Z,7.21
2023-01-10T03:48:12.481Z,7.27
2023-01-10T03:50:45.555Z,7.34
2023-01-10T03:53:19.576Z,7.30
2023-01-10T03:55:49.925Z,7.31
2023-01-10T03:58:21.979Z,7.28
2023-01-10T04:00:52.554Z,7.28
2023-01-10T04:03:23.108Z,7.27
2023-01-10T04:05:53.527Z,7.20
2023-01-10T04:08:26.516Z,7.26
2023-01-10T04:10:56.897Z,7.35
2023-01-10T04:13:27.291Z,7.24
2023-01-10T04:15:57.631Z,7.30
2023-01-10T04:18:27.997Z,7.35
2023-01-10T04:20:58.402Z,7.25
2023-01-10T04:23:31.396Z,7.27
2023-01-10T04:26:01.680Z,7.26
2023-01-10T04:28:32.026Z,7.30
2023-01-10T04:31:02.440Z,7.16
2023-01-10T04:33:33.005Z,7.10
2023-01-10T04:36:03.745Z,7.10
2023-01-10T04:38:36.737Z,7.27
2023-01-10T04:41:07.301Z,7.22
2023-01-10T04:43:37.657Z,7.23
2023-01-10T04:46:08.413Z,7.37
2023-01-10T04:48:39.415Z,7.25
2023-01-10T04:51:09.938Z,7.22
2023-01-10T04:53:43.084Z,7.22
2023-01-10T04:56:19.464Z,7.14
2023-01-10T04:58:53.080Z,7.07
2023-01-10T05:01:26.790Z,7.11
2023-01-10T05:03:59.321Z,7.20
2023-01-10T05:06:29.959Z,7.18
2023-01-10T05:09:03.088Z,7.24
2023-01-10T05:11:33.390Z,7.12
2023-01-10T05:14:03.757Z,7.13
2023-01-10T05:16:34.170Z,7.12
2023-01-10T05:19:04.677Z,7.20
2023-01-10T05:21:35.314Z,7.28
2023-01-10T05:24:09.658Z,7.33
2023-01-10T05:26:40.118Z,7.31
2023-01-10T05:29:12.096Z,7.36
2023-01-10T05:31:42.477Z,7.37
2023-01-10T05:34:15.553Z,7.41
2023-01-10T05:36:45.857Z,7.37
2023-01-10T05:39:18.762Z,7.31
2023-01-10T05:41:49.039Z,7.33
2023-01-10T05:44:19.363Z,7.27
2023-01-10T05:46:49.787Z,7.17
2023-01-10T05:49:20.133Z,7.21
2023-01-10T05:51:50.497Z,7.21
2023-01-10T05:54:23.646Z,7.33
2023-01-10T05:56:53.926Z,7.25
2023-01-10T05:59:28.352Z,7.28
2023-01-10T06:01:59.184Z,7.29
2023-01-10T06:04:29.523Z,7.22
2023-01-10T06:06:59.809Z,7.16
2023-01-10T06:09:32.803Z,7.06
2023-01-10T06:12:03.137Z,7.03
2023-01-10T06:14:33.493Z,7.02
2023-01-10T06:17:03.789Z,7.01
2023-01-10T06:19:34.036Z,7.07
2023-01-10T06:22:04.424Z,7.15
2023-01-10T06:24:37.315Z,7.14
2023-01-10T06:27:07.651Z,7.08
2023-01-10T06:29:37.961Z,7.04
2023-01-10T06:32:08.476Z,7.06
2023-01-10T06:34:38.870Z,7.08
2023-01-10T06:37:09.299Z,7.11
2023-01-10T06:39:42.489Z,7.15
2023-01-10T06:42:12.778Z,7.13
2023-01-10T06:44:43.086Z,7.15
2023-01-10T06:47:13.373Z,7.15
2023-01-10T06:49:43.649Z,7.20
2023-01-10T06:52:13.981Z,7.11
2023-01-10T06:54:46.866Z,7.08
2023-01-10T06:57:17.154Z,7.09
2023-01-10T06:59:47.462Z,7.07
2023-01-10T07:02:18.260Z,7.02
2023-01-10T07:04:48.670Z,6.88
2023-01-10T07:07:19.492Z,6.91
2023-01-10T07:09:52.482Z,6.95
2023-01-10T07:12:22.783Z,6.98
2023-01-10T07:14:53.035Z,7.03
2023-01-10T07:17:23.507Z,7.04
2023-01-10T07:19:53.942Z,6.94
2023-01-10T07:22:24.441Z,6.92
2023-01-10T07:24:57.557Z,6.99
2023-01-10T07:27:27.821Z,7.05
2023-01-10T07:29:58.439Z,7.13
2023-01-10T07:32:29.635Z,7.10
2023-01-10T07:35:00.121Z,7.12
2023-01-10T07:37:30.597Z,7.16
2023-01-10T07:40:03.619Z,7.17
2023-01-10T07:42:33.906Z,7.17
2023-01-10T07:45:04.212Z,7.18
2023-01-10T07:47:34.584Z,7.15
2023-01-10T07:50:04.909Z,7.18
2023-01-10T07:52:38.413Z,7.06
2023-01-10T07:55:12.792Z,7.13
2023-01-10T07:57:43.190Z,7.19
2023-01-10T08:00:17.943Z,7.10
2023-01-10T08:02:49.635Z,7.08
2023-01-10T08:05:20.183Z,7.06
2023-01-10T08:07:50.536Z,7.07
2023-01-10T08:10:23.600Z,7.09
2023-01-10T08:12:53.913Z,7.21
2023-01-10T08:15:24.546Z,7.24
2023-01-10T08:17:55.027Z,7.22
2023-01-10T08:20:25.363Z,7.25
2023-01-10T08:22:55.692Z,7.16
2023-01-10T08:25:29.306Z,7.18
2023-01-10T08:27:59.565Z,7.14
2023-01-10T08:30:30.111Z,7.10
2023-01-10T08:33:00.524Z,7.15
2023-01-10T08:35:30.983Z,7.20
2023-01-10T08:38:02.813Z,7.26
2023-01-10T08:40:35.882Z,7.18
2023-01-10T08:43:08.934Z,7.32
2023-01-10T08:45:40.221Z,7.30
2023-01-10T08:48:11.837Z,7.34
2023-01-10T08:50:42.118Z,7.34
2023-01-10T08:53:13.842Z,7.29
2023-01-10T08:55:46.841Z,7.28
2023-01-10T08:58:17.732Z,7.30
2023-01-10T09:00:49.647Z,7.31
2023-01-10T09:03:20.129Z,7.33
2023-01-10T09:05:50.931Z,7.45
2023-01-10T09:08:21.287Z,7.47
2023-01-10T09:10:54.522Z,7.58
2023-01-10T09:13:25.356Z,7.62
2023-01-10T09:15:56.873Z,7.66
2023-01-10T09:18:28.327Z,7.61
2023-01-10T09:20:59.136Z,7.53
2023-01-10T09:23:30.014Z,7.69
2023-01-10T09:26:04.273Z,7.69
2023-01-10T09:28:34.652Z,7.70
2023-01-10T09:31:05.345Z,7.79
2023-01-10T09:33:46.163Z,7.78
2023-01-10T09:36:16.899Z,7.76
2023-01-10T09:38:47.463Z,7.76
2023-01-10T09:42:00.268Z,7.79
2023-01-10T09:44:45.149Z,7.88
2023-01-10T09:47:23.356Z,7.97
2023-01-10T09:50:15.533Z,8.08
2023-01-10T09:52:50.291Z,8.11
2023-01-10T09:55:31.430Z,8.08
2023-01-10T09:58:12.949Z,8.21
2023-01-10T10:00:47.513Z,8.27
2023-01-10T10:03:33.295Z,8.21
2023-01-10T10:06:11.540Z,8.24
2023-01-10T10:08:43.310Z,8.27
2023-01-10T10:11:31.839Z,8.19
2023-01-10T10:14:14.374Z,8.28
2023-01-10T10:17:09.603Z,8.43
2023-01-10T10:20:02.920Z,8.50
2023-01-10T10:22:47.393Z,8.29
2023-01-10T10:25:44.081Z,8.41
2023-01-10T10:28:53.685Z,8.49
2023-01-10T10:31:43.797Z,8.36
2023-01-10T10:34:24.040Z,8.23
2023-01-10T10:36:59.609Z,8.22
2023-01-10T10:39:39.351Z,8.12
2023-01-10T10:42:17.838Z,8.10
2023-01-10T10:44:54.149Z,8.24
2023-01-10T10:47:35.743Z,8.25
2023-01-10T10:50:21.701Z,8.13
2023-01-10T10:52:52.015Z,8.12
2023-01-10T10:55:33.475Z,8.12
2023-01-10T10:58:05.617Z,8.04
2023-01-10T11:00:36.447Z,8.05
2023-01-10T11:03:28.771Z,8.07
2023-01-10T11:06:00.693Z,8.28
2023-01-10T11:08:32.720Z,8.22
2023-01-10T11:11:07.824Z,8.34
2023-01-10T11:13:49.933Z,8.67
2023-01-10T11:16:33.116Z,8.89
2023-01-10T11:19:21.995Z,8.99
2023-01-10T11:21:57.228Z,8.92
2023-01-10T11:24:32.358Z,8.82
2023-01-10T11:27:07.883Z,8.82
2023-01-10T11:29:46.106Z,8.87
2023-01-10T11:32:20.188Z,8.91
2023-01-10T11:35:01.295Z,9.28
2023-01-10T11:37:36.077Z,9.43
2023-01-10T11:40:26.176Z,9.30
2023-01-10T11:42:59.418Z,9.16
2023-01-10T11:45:37.120Z,9.27
2023-01-10T11:48:21.412Z,9.25
2023-01-10T11:51:00.162Z,9.30
2023-01-10T11:53:41.572Z,9.09
2023-01-10T11:56:16.154Z,9.37
2023-01-10T11:58:46.921Z,9.49
2023-01-10T12:01:31.731Z,9.94
2023-01-10T12:04:02.672Z,9.95
2023-01-10T12:06:37.195Z,9.70
2023-01-10T12:09:07.519Z,9.66
2023-01-10T12:11:37.858Z,9.80
2023-01-10T12:14:23.350Z,9.79
2023-01-10T12:17:03.570Z,9.65
2023-01-10T12:19:33.978Z,9.46
2023-01-10T12:22:09.030Z,9.30
2023-01-10T12:24:44.273Z,9.04
2023-01-10T12:27:17.640Z,8.92
2023-01-10T12:29:54.796Z,8.81
2023-01-10T12:32:30.753Z,8.87
2023-01-10T12:35:06.801Z,8.75
2023-01-10T12:37:49.438Z,8.85
2023-01-10T12:40:29.299Z,8.96
2023-01-10T12:43:20.585Z,8.95
2023-01-10T12:45:55.053Z,8.84
2023-01-10T12:48:33.735Z,8.74
2023-01-10T12:51:09.095Z,8.50
2023-01-10T12:53:47.158Z,8.37
2023-01-10T12:56:20.366Z,8.34
2023-01-10T12:58:53.669Z,8.40
2023-01-10T13:01:32.498Z,8.37
2023-01-10T13:04:08.653Z,8.33
2023-01-10T13:06:42.610Z,8.25
2023-01-10T13:09:21.123Z,8.21
2023-01-10T13:12:00.463Z,8.21
2023-01-10T13:14:39.006Z,8.22
2023-01-10T13:17:23.814Z,8.30
2023-01-10T13:20:30.496Z,8.20
2023-01-10T13:23:02.661Z,8.26
2023-01-10T13:25:39.775Z,8.30
2023-01-10T13:28:19.763Z,8.25
2023-01-10T13:30:56.001Z,8.08
2023-01-10T13:33:28.838Z,8.05
2023-01-10T13:36:09.168Z,7.93
2023-01-10T13:38:50.611Z,7.99
2023-01-10T13:41:37.010Z,8.13
2023-01-10T13:44:12.851Z,8.09
2023-01-10T13:46:52.522Z,8.17
2023-01-10T13:49:49.193Z,8.15
2023-01-10T13:52:43.517Z,8.20
2023-01-10T13:55:34.377Z,8.24
2023-01-10T13:58:58.152Z,8.22
2023-01-10T14:01:51.729Z,8.32
2023-01-10T14:04:24.389Z,8.10
2023-01-10T14:06:57.977Z,8.09
2023-01-10T14:09:41.442Z,8.14
2023-01-10T14:12:24.913Z,8.00
2023-01-10T14:15:06.690Z,7.93
2023-01-10T14:17:39.072Z,8.04
2023-01-10T14:20:23.299Z,8.06
2023-01-10T14:23:12.162Z,7.93
2023-01-10T14:25:42.991Z,7.90
2023-01-10T14:28:24.602Z,7.93
2023-01-10T14:31:06.789Z,7.94
2023-01-10T14:33:39.781Z,7.86
2023-01-10T14:36:18.745Z,7.87
2023-01-10T14:38:50.678Z,7.82
2023-01-10T14:41:26.028Z,7.78
2023-01-10T14:44:02.334Z,7.81
2023-01-10T14:46:47.436Z,7.83
2023-01-10T14:49:28.862Z,7.79
2023-01-10T14:52:16.383Z,7.81
2023-01-10T14:54:46.841Z,7.79
2023-01-10T14:57:23.280Z,7.80
2023-01-10T14:59:54.391Z,7.80
2023-01-10T15:02:28.224Z,7.80
2023-01-10T15:05:01.491Z,7.76
2023-01-10T15:07:31.989Z,7.75
2023-01-10T15:10:06.135Z,7.80
2023-01-10T15:12:38.598Z,7.82
2023-01-10T15:15:17.977Z,7.77
2023-01-10T15:17:52.032Z,7.75
2023-01-10T15:20:24.929Z,7.66
2023-01-10T15:23:01.091Z,7.66
2023-01-10T15:25:38.168Z,7.73
2023-01-10T15:28:17.459Z,7.75
2023-01-10T15:30:48.708Z,7.61
2023-01-10T15:33:29.928Z,7.60
2023-01-10T15:36:00.787Z,7.53
2023-01-10T15:38:34.302Z,7.48
2023-01-10T15:41:08.018Z,7.35
2023-01-10T15:43:40.368Z,7.33
2023-01-10T15:46:22.010Z,7.37
2023-01-10T15:49:03.160Z,7.48
2023-01-10T15:51:37.626Z,7.46
2023-01-10T15:54:13.177Z,7.42
2023-01-10T15:56:51.187Z,7.43
2023-01-10T15:59:27.195Z,7.33
2023-01-10T16:02:00.112Z,7.23
2023-01-10T16:04:37.519Z,7.09
2023-01-10T16:07:10.898Z,7.13
2023-01-10T16:09:42.790Z,7.08
2023-01-10T16:12:41.390Z,7.11
2023-01-10T16:15:19.590Z,7.05
2023-01-10T16:17:51.117Z,6.97
2023-01-10T16:20:29.152Z,6.87
2023-01-10T16:23:01.140Z,6.91
2023-01-10T16:25:36.860Z,7.10
2023-01-10T16:28:09.548Z,6.98
2023-01-10T16:30:43.718Z,6.93
2023-01-10T16:33:17.667Z,6.77
2023-01-10T16:35:52.304Z,6.63
2023-01-10T16:38:23.360Z,6.66
2023-01-10T16:40:56.374Z,6.78
2023-01-10T16:43:26.921Z,6.74
2023-01-10T16:46:00.350Z,6.67
2023-01-10T16:48:33.615Z,6.54
2023-01-10T16:51:20.833Z,6.56
2023-01-10T16:53:52.043Z,6.50
2023-01-10T16:56:23.541Z,6.40
2023-01-10T16:58:55.856Z,6.39
2023-01-10T17:01:31.432Z,6.34
2023-01-10T17:04:02.481Z,6.33
2023-01-10T17:06:35.620Z,6.34
2023-01-10T17:09:06.362Z,6.28
2023-01-10T17:11:41.544Z,6.28
2023-01-10T17:14:15.398Z,6.35
2023-01-10T17:16:46.351Z,6.39
2023-01-10T17:19:16.739Z,6.38
2023-01-10T17:21:49.990Z,6.28
2023-01-10T17:24:20.284Z,6.29
2023-01-10T17:26:50.650Z,6.24
2023-01-10T17:29:23.168Z,6.12
2023-01-10T17:31:53.748Z,6.04
2023-01-10T17:34:24.290Z,6.11
2023-01-10T17:36:57.208Z,6.12
2023-01-10T17:39:27.721Z,6.07
2023-01-10T17:41:58.256Z,6.06
2023-01-10T17:44:28.613Z,5.96
2023-01-10T17:46:58.904Z,5.82
2023-01-10T17:49:29.548Z,5.89
2023-01-10T17:52:02.520Z,5.90
2023-01-10T17:54:35.069Z,5.99
2023-01-10T17:57:06.245Z,6.05
2023-01-10T17:59:36.723Z,6.13
2023-01-10T18:02:07.735Z,6.15
2023-01-10T18:04:38.202Z,6.00
2023-01-10T18:07:12.947Z,5.84
2023-01-10T18:09:43.431Z,5.85
2023-01-10T18:12:13.723Z,5.85
2023-01-10T18:14:44.065Z,5.78
2023-01-10T18:17:17.495Z,5.87
2023-01-10T18:19:49.056Z,5.74
2023-01-10T18:22:34.444Z,5.80
2023-01-10T18:25:04.809Z,5.73
2023-01-10T18:27:36.188Z,5.81
2023-01-10T18:30:08.516Z,5.84
2023-01-10T18:32:38.934Z,5.86
2023-01-10T18:35:10.223Z,5.75
2023-01-10T18:37:43.307Z,5.64
2023-01-10T18:40:17.170Z,5.59
2023-01-10T18:42:51.485Z,5.50
2023-01-10T18:45:22.629Z,5.49
2023-01-10T18:47:56.448Z,5.56
2023-01-10T18:50:27.827Z,5.63
2023-01-10T18:53:03.874Z,5.69
2023-01-10T18:55:34.893Z,5.61
2023-01-10T18:58:05.414Z,5.49
2023-01-10T19:00:35.873Z,5.55
2023-01-10T19:03:06.888Z,5.63
2023-01-10T19:05:37.335Z,5.71
2023-01-10T19:08:10.396Z,5.76
2023-01-10T19:11:00.314Z,5.70
2023-01-10T19:13:31.127Z,5.73
2023-01-10T19:16:15.503Z,5.70
2023-01-10T19:18:46.692Z,5.72
2023-01-10T19:21:17.830Z,5.75
2023-01-10T19:23:55.127Z,5.70
2023-01-10T19:26:26.426Z,5.73
2023-01-10T19:28:56.469Z,5.65
2023-01-10T19:31:29.608Z,5.68
2023-01-10T19:34:02.901Z,5.71
2023-01-10T19:36:34.879Z,5.64
2023-01-10T19:39:08.171Z,5.60
2023-01-10T19:41:39.302Z,5.64
2023-01-10T19:44:11.171Z,5.62
2023-01-10T19:46:44.083Z,5.55
2023-01-10T19:49:19.671Z,5.57
2023-01-10T19:51:53.836Z,5.56
2023-01-10T19:54:27.009Z,5.55
2023-01-10T19:56:57.385Z,5.51
2023-01-10T19:59:27.957Z,5.45
2023-01-10T20:01:58.392Z,5.38
2023-01-10T20:04:28.810Z,5.30
2023-01-10T20:06:59.291Z,5.29
2023-01-10T20:09:33.546Z,5.39
2023-01-10T20:12:03.829Z,5.43
2023-01-10T20:14:34.302Z,5.34
2023-01-10T20:17:04.971Z,5.30
2023-01-10T20:19:35.371Z,5.28
2023-01-10T20:22:05.723Z,5.28
2023-01-10T20:24:39.430Z,5.31
2023-01-10T20:27:10.348Z,5.26
2023-01-10T20:29:42.880Z,5.17
2023-01-10T20:32:13.942Z,5.05
2023-01-10T20:34:45.425Z,5.13
2023-01-10T20:37:15.761Z,5.22
2023-01-10T20:39:49.709Z,5.23
2023-01-10T20:42:20.022Z,5.14
2023-01-10T20:44:50.267Z,5.12
2023-01-10T20:47:21.659Z,5.09
2023-01-10T20:49:52.303Z,5.08
2023-01-10T20:52:22.704Z,5.09
2023-01-10T20:54:55.641Z,5.09
2023-01-10T20:57:26.017Z,5.11
2023-01-10T20:59:56.321Z,5.09
2023-01-10T21:02:26.715Z,5.14
2023-01-10T21:04:57.129Z,5.15
2023-01-10T21:07:27.436Z,5.19
2023-01-10T21:10:00.366Z,5.18
2023-01-10T21:12:31.748Z,5.13
2023-01-10T21:15:02.064Z,5.11
2023-01-10T21:17:32.454Z,5.17
2023-01-10T21:20:02.871Z,5.16
2023-01-10T21:22:33.189Z,5.15
2023-01-10T21:25:06.442Z,5.10
2023-01-10T21:27:37.024Z,5.16
2023-01-10T21:30:10.106Z,5.19
2023-01-10T21:32:40.422Z,5.18
2023-01-10T21:35:11.329Z,5.18
2023-01-10T21:37:41.776Z,5.17
2023-01-10T21:40:15.211Z,5.18
2023-01-10T21:42:47.085Z,5.22
2023-01-10T21:45:18.406Z,5.25
2023-01-10T21:47:48.959Z,5.26
2023-01-10T21:50:22.560Z,5.21
2023-01-10T21:52:53.075Z,5.21
2023-01-10T21:55:25.974Z,5.24
2023-01-10T21:57:56.296Z,5.28
2023-01-10T22:00:26.850Z,5.32
2023-01-10T22:02:57.576Z,5.27
2023-01-10T22:05:27.906Z,5.21
2023-01-10T22:07:59.098Z,5.26
2023-01-10T22:10:31.791Z,5.30
2023-01-10T22:13:02.090Z,5.33
2023-01-10T22:15:32.404Z,5.38
2023-01-10T22:18:03.170Z,5.36
2023-01-10T22:20:33.680Z,5.31
2023-01-10T22:23:04.168Z,5.29
2023-01-10T22:25:37.156Z,5.31
2023-01-10T22:28:07.848Z,5.26
2023-01-10T22:30:38.173Z,5.31
2023-01-10T22:33:08.499Z,5.32
2023-01-10T22:35:38.788Z,5.31
2023-01-10T22:38:09.032Z,5.32
2023-01-10T22:40:41.910Z,5.31
2023-01-10T22:43:12.527Z,5.29
2023-01-10T22:45:46.513Z,5.30
2023-01-10T22:48:16.886Z,5.25
2023-01-10T22:50:51.985Z,5.28
2023-01-10T22:53:22.304Z,5.26
2023-01-10T22:55:55.435Z,5.21
2023-01-10T22:58:25.768Z,5.21
2023-01-10T23:00:56.202Z,5.27
2023-01-10T23:03:27.839Z,5.25
2023-01-10T23:05:59.128Z,5.24
2023-01-10T23:08:29.884Z,5.23
2023-01-10T23:11:03.375Z,5.25
2023-01-10T23:13:34.377Z,5.26
2023-01-10T23:16:12.305Z,5.28
2023-01-10T23:18:43.029Z,5.30
2023-01-10T23:21:13.527Z,5.33
2023-01-10T23:23:43.927Z,5.43
2023-01-10T23:26:16.937Z,5.50
2023-01-10T23:28:50.202Z,5.63
2023-01-10T23:31:23.141Z,5.62
2023-01-10T23:33:55.438Z,5.63
2023-01-10T23:36:26.225Z,5.65
2023-01-10T23:38:56.605Z,5.68
2023-01-10T23:41:29.607Z,5.66
2023-01-10T23:43:59.939Z,5.66
2023-01-10T23:46:30.204Z,5.71
2023-01-10T23:49:00.530Z,5.69
2023-01-10T23:51:30.858Z,5.73
2023-01-10T23:54:01.131Z,5.69
2023-01-10T23:56:34.076Z,5.74
2023-01-10T23:59:04.648Z,5.78
